Time;durP1;ratioP1;P1;durP2;ratioP2;P2;SDS_P1;SDS_P2;PMS_P1;PMS_P2;Temp;Humidity;BMP_temperature;BMP_pressure;BME280_temperature;BME280_humidity;BME280_pressure;Samples;Min_cycle;Max_cycle;Signal;HPM_P1;HPM_P2
2023/08/13 00:00:54;;;;;;;0.10;0.10;;;;;;;15.86;100.00;101559.50;5095873;28;20016;-50
2023/08/13 00:03:19;;;;;;;0.10;0.10;;;;;;;15.73;100.00;101561.81;5094861;28;20036;-48
2023/08/13 00:05:46;;;;;;;0.00;0.00;;;;;;;15.72;100.00;101567.88;5095645;28;20043;-50
2023/08/13 00:08:11;;;;;;;0.10;0.10;;;;;;;15.72;100.00;101564.41;5095858;28;20028;-49
2023/08/13 00:10:38;;;;;;;0.10;0.10;;;;;;;15.68;100.00;101562.59;5094818;28;20031;-49
2023/08/13 00:13:04;;;;;;;0.10;0.10;;;;;;;15.67;100.00;101566.91;5095577;28;20372;-50
2023/08/13 00:15:29;;;;;;;0.10;0.10;;;;;;;15.67;100.00;101561.69;5095490;28;20106;-49
2023/08/13 00:17:55;;;;;;;0.10;0.10;;;;;;;15.67;100.00;101559.09;5094812;28;20020;-50
2023/08/13 00:20:20;;;;;;;0.10;0.10;;;;;;;15.64;100.00;101559.06;5095730;28;20466;-49
2023/08/13 00:22:45;;;;;;;0.10;0.10;;;;;;;15.63;100.00;101559.88;5095176;28;20024;-49
2023/08/13 00:25:11;;;;;;;0.10;0.10;;;;;;;15.58;100.00;101553.72;5094604;28;20024;-50
2023/08/13 00:27:36;;;;;;;0.10;0.10;;;;;;;15.56;100.00;101563.22;5095176;28;20428;-49
2023/08/13 00:30:01;;;;;;;0.10;0.10;;;;;;;15.50;100.00;101557.91;5095357;28;20073;-49
2023/08/13 00:32:27;;;;;;;0.10;0.10;;;;;;;15.48;100.00;101556.13;5094175;28;20032;-48
2023/08/13 00:34:52;;;;;;;0.10;0.10;;;;;;;15.47;100.00;101554.38;5095199;28;20024;-49
2023/08/13 00:37:17;;;;;;;0.10;0.10;;;;;;;15.51;100.00;101550.13;5095290;28;20031;-50
2023/08/13 00:39:43;;;;;;;0.10;0.10;;;;;;;15.47;100.00;101554.38;5094151;28;20020;-49
2023/08/13 00:42:08;;;;;;;0.08;0.08;;;;;;;15.40;100.00;101557.72;5095161;28;20028;-50
2023/08/13 00:44:34;;;;;;;0.10;0.10;;;;;;;15.36;100.00;101550.69;5094435;28;20047;-49
2023/08/13 00:47:00;;;;;;;0.10;0.10;;;;;;;15.31;100.00;101552.28;5094135;28;20077;-50
2023/08/13 00:49:25;;;;;;;0.10;0.10;;;;;;;15.33;100.00;101555.81;5094511;28;20107;-50
2023/08/13 00:51:51;;;;;;;0.10;0.10;;;;;;;15.27;100.00;101556.56;5094863;28;20063;-50
2023/08/13 00:54:17;;;;;;;0.10;0.10;;;;;;;15.28;100.00;101552.25;5094278;28;20111;-50
2023/08/13 00:56:45;;;;;;;0.10;0.10;;;;;;;15.21;100.00;101551.25;5094735;28;20488;-50
2023/08/13 00:59:11;;;;;;;0.10;0.10;;;;;;;15.15;100.00;101557.16;5094225;28;20020;-49
2023/08/13 01:01:36;;;;;;;0.10;0.10;;;;;;;15.17;100.00;101540.75;5094303;28;20031;-50
2023/08/13 01:04:01;;;;;;;0.08;0.08;;;;;;;15.11;100.00;101534.56;5094737;28;20028;-50
2023/08/13 01:06:33;;;;;;;0.10;0.10;;;;;;;15.11;100.00;101538.91;5093762;28;20027;-50
2023/08/13 01:09:24;;;;;;;0.10;0.10;;;;;;;15.11;100.00;101544.97;5094775;28;20028;-50
2023/08/13 01:12:04;;;;;;;0.10;0.10;;;;;;;15.08;100.00;101547.50;5094483;28;20157;-50
2023/08/13 01:14:35;;;;;;;0.10;0.10;;;;;;;15.00;100.00;101549.03;5093572;28;20069;-50
2023/08/13 01:17:02;;;;;;;0.10;0.10;;;;;;;14.98;100.00;101545.53;5094478;28;20027;-50
2023/08/13 01:19:27;;;;;;;0.10;0.10;;;;;;;14.97;100.00;101541.19;5093992;28;20036;-50
2023/08/13 01:21:53;;;;;;;0.10;0.10;;;;;;;14.95;100.00;101545.44;5093305;28;20028;-49
2023/08/13 01:24:18;;;;;;;0.10;0.10;;;;;;;14.96;100.00;101544.63;5094083;28;20028;-51
2023/08/13 01:27:09;;;;;;;0.03;0.03;;;;;;;14.96;100.00;101549.81;5093817;28;20047;-50
2023/08/13 01:29:41;;;;;;;0.10;0.10;;;;;;;14.92;100.00;101553.19;5093362;28;20020;-51
2023/08/13 01:32:12;;;;;;;0.10;0.10;;;;;;;14.90;100.00;101553.16;5094284;28;20070;-50
2023/08/13 01:34:37;;;;;;;0.10;0.10;;;;;;;14.84;100.00;101552.13;5093104;28;20028;-50
2023/08/13 01:37:04;;;;;;;0.10;0.10;;;;;;;14.81;100.00;101556.41;5094127;28;20047;-51
2023/08/13 01:39:29;;;;;;;0.10;0.10;;;;;;;14.79;100.00;101552.88;5094031;28;20052;-50
2023/08/13 01:41:55;;;;;;;0.10;0.10;;;;;;;14.84;100.00;101554.72;5093245;28;20107;-46
2023/08/13 01:44:21;;;;;;;0.10;0.10;;;;;;;14.81;100.00;101556.41;5093780;28;20047;-50
2023/08/13 01:46:47;;;;;;;0.10;0.10;;;;;;;14.80;100.00;101549.44;5093481;28;20112;-48
2023/08/13 01:49:12;;;;;;;0.10;0.10;;;;;;;14.85;100.00;101553.88;5093097;28;20021;-50
2023/08/13 01:51:38;;;;;;;0.10;0.10;;;;;;;14.84;100.00;101557.31;5093343;28;20429;-51
2023/08/13 01:54:03;;;;;;;0.10;0.10;;;;;;;14.85;100.00;101561.66;5093117;28;20454;-50
2023/08/13 01:56:29;;;;;;;0.10;0.10;;;;;;;14.86;100.00;101558.22;5092904;28;20078;-50
2023/08/13 01:58:54;;;;;;;0.10;0.10;;;;;;;14.88;100.00;101557.41;5093702;28;20110;-50
2023/08/13 02:01:19;;;;;;;0.10;0.10;;;;;;;14.87;100.00;101554.78;5093702;28;20058;-50
2023/08/13 02:03:44;;;;;;;0.10;0.10;;;;;;;14.89;100.00;101560.91;5092452;28;20048;-50
2023/08/13 02:06:10;;;;;;;0.10;0.10;;;;;;;14.86;100.00;101553.03;5093361;28;20490;-49
2023/08/13 02:08:35;;;;;;;0.10;0.10;;;;;;;14.80;100.00;101549.44;5093134;28;20057;-50
2023/08/13 02:11:00;;;;;;;0.10;0.10;;;;;;;14.79;100.00;101552.00;5092858;28;20476;-51
2023/08/13 02:13:26;;;;;;;0.10;0.10;;;;;;;14.75;100.00;101550.19;5093135;28;20024;-50
2023/08/13 02:15:51;;;;;;;0.10;0.10;;;;;;;14.65;100.00;101556.88;5093376;28;20022;-48
2023/08/13 02:18:16;;;;;;;0.10;0.10;;;;;;;14.68;100.00;101554.38;5092593;28;20026;-49
2023/08/13 02:20:42;;;;;;;0.10;0.10;;;;;;;14.56;100.00;101551.44;5093099;28;20027;-51
2023/08/13 02:23:07;;;;;;;0.10;0.10;;;;;;;14.59;100.00;101541.13;5093223;28;20024;-51
2023/08/13 02:25:32;;;;;;;0.10;0.10;;;;;;;14.63;100.00;101553.34;5092346;28;20028;-48
2023/08/13 02:27:58;;;;;;;0.10;0.10;;;;;;;14.59;100.00;101543.72;5093168;28;20460;-50
2023/08/13 02:30:23;;;;;;;0.10;0.10;;;;;;;14.49;100.00;101547.81;5092874;28;20024;-51
2023/08/13 02:32:49;;;;;;;0.10;0.10;;;;;;;14.47;100.00;101550.38;5092312;28;20372;-50
2023/08/13 02:35:14;;;;;;;0.10;0.10;;;;;;;14.52;100.00;101541.81;5093005;28;20077;-49
2023/08/13 02:37:39;;;;;;;0.20;0.20;;;;;;;14.53;100.00;101544.44;5092266;28;20056;-50
2023/08/13 02:40:06;;;;;;;0.10;0.10;;;;;;;14.51;100.00;101535.75;5093315;28;20026;-50
2023/08/13 02:42:32;;;;;;;0.10;0.10;;;;;;;14.48;100.00;101530.50;5092796;28;20069;-51
2023/08/13 02:44:57;;;;;;;0.10;0.10;;;;;;;14.45;100.00;101533.03;5092169;28;20048;-50
2023/08/13 02:47:24;;;;;;;0.10;0.10;;;;;;;14.47;100.00;101529.63;5092745;28;20089;-48
2023/08/13 02:49:49;;;;;;;0.10;0.10;;;;;;;14.47;100.00;101534.81;5092887;28;20425;-49
2023/08/13 02:52:15;;;;;;;0.10;0.10;;;;;;;14.43;100.00;101527.78;5092143;28;20024;-49
2023/08/13 02:54:40;;;;;;;0.10;0.10;;;;;;;14.42;100.00;101538.13;5092802;28;20020;-49
2023/08/13 02:57:06;;;;;;;0.10;0.10;;;;;;;14.36;100.00;101527.59;5093055;28;20479;-50
2023/08/13 02:59:31;;;;;;;0.10;0.10;;;;;;;14.42;100.00;101526.03;5092013;28;20074;-51
2023/08/13 03:01:56;;;;;;;0.20;0.20;;;;;;;14.37;100.00;101527.66;5092754;28;20024;-50
2023/08/13 03:04:22;;;;;;;0.10;0.10;;;;;;;14.36;100.00;101515.50;5092700;28;20016;-50
2023/08/13 03:06:47;;;;;;;0.10;0.10;;;;;;;14.35;100.00;101523.25;5095425;28;20023;-49
2023/08/13 03:09:20;;;;;;;0.10;0.10;;;;;;;14.29;100.00;101527.44;5097073;28;20016;-51
2023/08/13 03:11:45;;;;;;;0.10;0.10;;;;;;;14.30;100.00;101529.19;5096849;28;20051;-49
2023/08/13 03:14:11;;;;;;;0.10;0.10;;;;;;;14.28;100.00;101527.38;5096080;28;20047;-50
2023/08/13 03:16:36;;;;;;;0.10;0.10;;;;;;;14.23;100.00;101526.41;5096454;28;20043;-50
2023/08/13 03:19:01;;;;;;;0.10;0.10;;;;;;;14.22;100.00;101527.25;5096558;28;20028;-51
2023/08/13 03:21:27;;;;;;;0.20;0.20;;;;;;;14.25;100.00;101537.69;5095828;28;20016;-51
2023/08/13 03:23:52;;;;;;;0.10;0.10;;;;;;;14.21;100.00;101531.56;5096476;28;20024;-51
2023/08/13 03:26:17;;;;;;;0.10;0.10;;;;;;;14.08;100.00;101527.75;5096844;28;20020;-50
2023/08/13 03:28:43;;;;;;;0.10;0.10;;;;;;;14.08;100.00;101537.25;5095483;28;20027;-50
2023/08/13 03:31:08;;;;;;;0.10;0.10;;;;;;;14.03;100.00;101526.75;5096495;28;20037;-50
2023/08/13 03:33:36;;;;;;;0.10;0.10;;;;;;;14.05;100.00;101530.28;5096057;28;20098;-51
2023/08/13 03:36:02;;;;;;;0.10;0.10;;;;;;;13.99;100.00;101530.13;5095800;28;20028;-50
2023/08/13 03:38:27;;;;;;;0.10;0.10;;;;;;;13.99;100.00;101533.59;5096202;28;20093;-50
2023/08/13 03:40:54;;;;;;;0.10;0.10;;;;;;;13.96;100.00;101530.06;5095907;28;20020;-50
2023/08/13 03:43:19;;;;;;;0.10;0.10;;;;;;;13.97;100.00;101530.09;5096078;28;20124;-50
2023/08/13 03:45:44;;;;;;;0.10;0.10;;;;;;;13.96;100.00;101530.06;5095977;28;20469;-51
2023/08/13 03:48:10;;;;;;;0.10;0.10;;;;;;;13.98;100.00;101528.34;5095339;28;20531;-51
2023/08/13 03:50:42;;;;;;;0.10;0.10;;;;;;;13.90;100.00;101532.47;5096003;28;20020;-50
2023/08/13 03:53:08;;;;;;;0.10;0.10;;;;;;;13.94;100.00;101531.72;5096201;28;20062;-50
2023/08/13 03:55:34;;;;;;;0.13;0.13;;;;;;;13.95;100.00;101533.47;5095023;28;20024;-51
2023/08/13 03:58:00;;;;;;;0.10;0.10;;;;;;;13.98;100.00;101533.53;5095969;28;20043;-51
2023/08/13 04:00:25;;;;;;;0.10;0.10;;;;;;;13.99;100.00;101535.31;5095548;28;20361;-50
2023/08/13 04:02:50;;;;;;;0.10;0.10;;;;;;;14.02;100.00;101535.41;5095054;28;20099;-49
2023/08/13 04:05:16;;;;;;;0.10;0.10;;;;;;;14.02;100.00;101542.28;5095932;28;20032;-49
2023/08/13 04:07:42;;;;;;;0.10;0.10;;;;;;;14.04;100.00;101538.91;5095624;28;20111;-49
2023/08/13 04:10:07;;;;;;;0.10;0.10;;;;;;;14.03;100.00;101538.84;5095051;28;20016;-50
2023/08/13 04:12:33;;;;;;;0.10;0.10;;;;;;;14.00;100.00;101548.28;5095410;28;20030;-48
2023/08/13 04:14:58;;;;;;;0.10;0.10;;;;;;;13.98;100.00;101543.91;5095434;28;20074;-45
2023/08/13 04:17:23;;;;;;;0.10;0.10;;;;;;;13.98;100.00;101549.09;5093888;28;20049;-45
2023/08/13 04:19:49;;;;;;;0.10;0.10;;;;;;;13.97;100.00;101549.94;5095694;28;20489;-51
2023/08/13 04:22:14;;;;;;;0.10;0.10;;;;;;;13.98;100.00;101546.50;5095594;28;20395;-49
2023/08/13 04:24:39;;;;;;;0.10;0.10;;;;;;;13.97;100.00;101537.00;5094565;28;20451;-51
2023/08/13 04:27:05;;;;;;;0.10;0.10;;;;;;;13.98;100.00;101538.72;5095461;28;20442;-46
2023/08/13 04:29:31;;;;;;;0.10;0.10;;;;;;;13.98;100.00;101546.50;5095131;28;20523;-46
2023/08/13 04:31:57;;;;;;;0.10;0.10;;;;;;;13.95;100.00;101536.94;5094493;28;20028;-50
2023/08/13 04:34:22;;;;;;;0.10;0.10;;;;;;;14.00;100.00;101537.94;5095306;28;20115;-46
2023/08/13 04:36:47;;;;;;;0.10;0.10;;;;;;;14.00;100.00;101542.25;5095451;28;20103;-50
2023/08/13 04:39:13;;;;;;;0.10;0.10;;;;;;;13.96;100.00;101540.41;5094448;28;20072;-49
2023/08/13 04:41:40;;;;;;;0.10;0.10;;;;;;;14.00;100.00;101542.25;5094909;28;20017;-47
2023/08/13 04:44:06;;;;;;;0.10;0.10;;;;;;;14.02;100.00;101540.59;5094797;28;20499;-51
2023/08/13 04:46:31;;;;;;;0.20;0.20;;;;;;;14.02;100.00;101545.78;5094067;28;20480;-47
2023/08/13 04:48:57;;;;;;;0.10;0.10;;;;;;;14.04;100.00;101541.47;5095294;28;20031;-47
2023/08/13 04:51:22;;;;;;;0.10;0.10;;;;;;;14.09;100.00;101550.25;5094154;28;20158;-46
2023/08/13 04:53:48;;;;;;;0.10;0.10;;;;;;;14.11;100.00;101551.19;5095012;28;20471;-46
2023/08/13 04:56:13;;;;;;;0.10;0.10;;;;;;;14.15;100.00;101558.22;5095019;28;20020;-48
2023/08/13 04:58:39;;;;;;;0.20;0.20;;;;;;;14.18;100.00;101551.31;5093604;28;20474;-48
2023/08/13 05:01:05;;;;;;;0.20;0.20;;;;;;;14.18;100.00;101551.31;5094629;28;20027;-45
2023/08/13 05:03:31;;;;;;;0.20;0.20;;;;;;;14.20;100.00;101545.34;5094510;28;20035;-49
2023/08/13 05:05:57;;;;;;;0.10;0.10;;;;;;;14.22;100.00;101550.59;5094008;28;20024;-49
2023/08/13 05:08:22;;;;;;;0.10;0.10;;;;;;;14.22;100.00;101545.41;5094169;28;20525;-46
2023/08/13 05:10:48;;;;;;;0.10;0.10;;;;;;;14.26;100.00;101544.66;5094600;28;20111;-46
2023/08/13 05:13:13;;;;;;;0.10;0.10;;;;;;;14.28;100.00;101543.84;5093859;28;20020;-45
2023/08/13 05:15:39;;;;;;;0.10;0.10;;;;;;;14.31;100.00;101540.44;5094107;28;20020;-51
2023/08/13 05:18:05;;;;;;;0.10;0.10;;;;;;;14.35;100.00;101538.81;5094558;28;20024;-51
2023/08/13 05:20:30;;;;;;;0.17;0.17;;;;;;;14.39;100.00;101538.91;5093290;28;20498;-49
2023/08/13 05:22:55;;;;;;;0.10;0.10;;;;;;;14.39;100.00;101536.31;5094468;28;20368;-46
2023/08/13 05:25:20;;;;;;;0.10;0.10;;;;;;;14.42;100.00;101544.19;5094425;28;20134;-45
2023/08/13 05:27:46;;;;;;;0.10;0.10;;;;;;;14.43;100.00;101543.34;5092344;28;20384;-46
2023/08/13 05:30:11;;;;;;;0.10;0.10;;;;;;;14.47;100.00;101545.19;5094017;28;20061;-48
2023/08/13 05:32:37;;;;;;;0.10;0.10;;;;;;;14.47;100.00;101549.47;5094007;28;20476;-50
2023/08/13 05:35:03;;;;;;;0.10;0.10;;;;;;;14.51;100.00;101551.31;5093216;28;20570;-48
2023/08/13 05:37:28;;;;;;;0.10;0.10;;;;;;;14.52;100.00;101554.78;5093898;28;20027;-45
2023/08/13 05:39:53;;;;;;;0.10;0.10;;;;;;;14.54;100.00;101558.28;5094169;28;20491;-45
2023/08/13 05:42:19;;;;;;;0.10;0.10;;;;;;;14.56;100.00;101564.41;5093270;28;20138;-50
2023/08/13 05:44:45;;;;;;;0.10;0.10;;;;;;;14.57;100.00;101560.97;5093196;28;20083;-50
2023/08/13 05:47:10;;;;;;;0.10;0.10;;;;;;;14.61;100.00;101555.00;5093793;28;20070;-46
2023/08/13 05:49:35;;;;;;;0.15;0.15;;;;;;;14.67;100.00;101559.50;5092870;28;20020;-46
2023/08/13 05:52:01;;;;;;;0.10;0.10;;;;;;;14.74;100.00;101557.09;5093825;28;20045;-46
2023/08/13 05:54:26;;;;;;;0.10;0.10;;;;;;;14.81;100.00;101561.59;5093400;28;20384;-50
2023/08/13 05:56:51;;;;;;;0.10;0.10;;;;;;;14.91;100.00;101572.19;5092900;28;20157;-51
2023/08/13 05:59:17;;;;;;;0.10;0.10;;;;;;;14.97;100.00;101568.00;5093513;28;20024;-45
2023/08/13 06:01:42;;;;;;;0.10;0.10;;;;;;;15.05;100.00;101577.69;5092314;28;20032;-46
2023/08/13 06:04:08;;;;;;;0.10;0.10;;;;;;;15.11;100.00;101568.31;5093706;28;20020;-46
2023/08/13 06:06:33;;;;;;;0.10;0.10;;;;;;;15.20;100.00;101561.59;5093618;28;20068;-46
2023/08/13 06:09:01;;;;;;;0.10;0.10;;;;;;;15.29;100.00;101565.25;5092791;28;20059;-50
2023/08/13 06:11:26;;;;;;;;;;;;;;;15.40;100.00;101573.31;5093680;28;20032;-49
2023/08/13 06:13:51;;;;;;;0.13;0.13;;;;;;;15.44;100.00;101569.91;5093385;28;19908;-49
2023/08/13 06:16:16;;;;;;;0.10;0.10;;;;;;;15.47;100.00;101574.31;5092561;28;20270;-45
2023/08/13 06:18:42;;;;;;;0.10;0.10;;;;;;;15.51;100.00;101567.44;5092974;28;20107;-50
2023/08/13 06:21:08;;;;;;;0.08;0.08;;;;;;;15.61;100.00;101572.00;5093753;28;20111;-46
2023/08/13 06:23:33;;;;;;;0.10;0.10;;;;;;;15.75;100.00;101575.75;5092109;28;20498;-48
2023/08/13 06:25:59;;;;;;;0.10;0.10;;;;;;;15.84;100.00;101566.38;5093261;28;20035;-50
2023/08/13 06:28:24;;;;;;;0.10;0.10;;;;;;;15.92;100.00;101570.91;5092893;28;20031;-50
2023/08/13 06:30:50;;;;;;;0.10;0.10;;;;;;;15.98;100.00;101571.84;5092260;28;20499;-45
2023/08/13 06:33:15;;;;;;;0.10;0.10;;;;;;;16.02;100.00;101574.53;5093262;28;20024;-45
2023/08/13 06:35:46;;;;;;;0.10;0.10;;;;;;;16.07;100.00;101567.69;5092787;28;20028;-50
2023/08/13 06:38:11;;;;;;;0.10;0.10;;;;;;;16.15;100.00;101572.16;5092390;28;20093;-50
2023/08/13 06:40:37;;;;;;;0.10;0.10;;;;;;;16.20;100.00;101567.94;5092591;28;20483;-50
2023/08/13 06:43:02;;;;;;;0.00;0.00;;;;;;;16.27;100.00;101570.66;5092620;28;20031;-49
2023/08/13 06:45:29;;;;;;;0.00;0.00;;;;;;;16.50;100.00;101574.50;5092142;28;20594;-51
2023/08/13 06:47:56;;;;;;;0.10;0.10;;;;;;;16.72;100.00;101574.00;5093081;28;20039;-51
2023/08/13 06:50:21;;;;;;;0.10;0.10;;;;;;;16.87;100.00;101582.91;5092762;28;20051;-49
2023/08/13 06:52:47;;;;;;;0.00;0.00;;;;;;;16.92;100.00;101578.69;5091916;28;20043;-46
2023/08/13 06:55:12;;;;;;;0.10;0.10;;;;;;;17.04;100.00;101576.28;5092879;28;20097;-49
2023/08/13 06:57:37;;;;;;;0.10;0.10;;;;;;;17.16;100.00;101574.69;5092485;28;20383;-51
2023/08/13 07:00:05;;;;;;;0.10;0.10;;;;;;;17.24;100.00;101570.47;5092011;28;20028;-51
2023/08/13 07:02:30;;;;;;;0.10;0.10;;;;;;;17.38;100.00;101576.72;5092688;28;20111;-49
2023/08/13 07:04:56;;;;;;;0.03;0.03;;;;;;;17.47;100.00;101572.47;5092086;28;20107;-47
2023/08/13 07:07:21;;;;;;;0.10;0.10;;;;;;;17.55;100.00;101573.47;5092830;28;20019;-49
2023/08/13 07:09:46;;;;;;;0.10;0.10;;;;;;;17.61;100.00;101573.50;5092474;28;20030;-51
2023/08/13 07:12:12;;;;;;;0.10;0.10;;;;;;;17.63;100.00;101571.81;5092069;28;20777;-50
2023/08/13 07:14:37;;;;;;;0.10;0.10;;;;;;;17.69;100.00;101571.91;5092256;28;20024;-45
2023/08/13 07:17:02;;;;;;;0.08;0.08;;;;;;;17.71;100.00;101569.31;5093080;28;20376;-50
2023/08/13 07:19:29;;;;;;;0.10;0.10;;;;;;;17.85;100.00;101572.06;5091706;28;20034;-45
2023/08/13 07:21:54;;;;;;;0.10;0.10;;;;;;;17.89;100.00;101558.22;5092651;28;20020;-49
2023/08/13 07:24:19;;;;;;;0.10;0.10;;;;;;;17.91;100.00;101556.50;5092469;28;20032;-49
2023/08/13 07:26:45;;;;;;;0.10;0.10;;;;;;;18.03;100.00;101561.84;5091512;28;20476;-49
2023/08/13 07:29:11;;;;;;;0.10;0.10;;;;;;;18.16;100.00;101564.59;5092500;28;20421;-49
2023/08/13 07:31:37;;;;;;;0.10;0.10;;;;;;;18.30;100.00;101569.97;5092170;28;20063;-50
2023/08/13 07:34:02;;;;;;;0.10;0.10;;;;;;;18.32;100.00;101569.09;5091850;28;20071;-50
2023/08/13 07:36:28;;;;;;;0.00;0.00;;;;;;;18.33;100.00;101565.63;5092342;28;20024;-51
2023/08/13 07:38:53;;;;;;;0.10;0.10;;;;;;;18.46;100.00;101568.34;5092511;28;20023;-45
2023/08/13 07:41:18;;;;;;;0.10;0.10;;;;;;;18.58;100.00;101568.47;5091877;28;20069;-47
2023/08/13 07:43:44;;;;;;;0.00;0.00;;;;;;;18.59;100.00;101563.25;5091853;28;20064;-47
2023/08/13 07:46:09;;;;;;;0.10;0.10;;;;;;;18.74;100.00;101567.69;5092597;28;20414;-51
2023/08/13 07:48:34;;;;;;;0.00;0.00;;;;;;;18.90;100.00;101573.06;5091391;28;20464;-50
2023/08/13 07:51:00;;;;;;;0.00;0.00;;;;;;;19.08;100.00;101567.97;5092861;28;20028;-50
2023/08/13 07:53:25;;;;;;;0.00;0.00;;;;;;;19.05;100.00;101573.16;5095891;28;20031;-51
2023/08/13 07:55:50;;;;;;;0.10;0.10;;;;;;;19.18;100.00;101575.84;5095292;28;20028;-51
2023/08/13 07:58:17;;;;;;;0.00;0.00;;;;;;;19.26;100.00;101571.53;5095759;28;20031;-45
2023/08/13 08:00:43;;;;;;;0.00;0.00;;;;;;;19.31;99.42;101564.56;5095743;28;20028;-45
2023/08/13 08:03:08;;;;;;;0.10;0.10;;;;;;;19.37;96.63;101562.00;5095320;28;20360;-51
2023/08/13 08:05:34;;;;;;;0.00;0.00;;;;;;;19.44;97.77;101559.41;5095554;28;20081;-50
2023/08/13 08:08:00;;;;;;;0.10;0.10;;;;;;;19.58;97.40;101557.72;5095818;28;20020;-50
2023/08/13 08:10:26;;;;;;;0.10;0.10;;;;;;;19.47;95.42;101562.03;5094789;28;20043;-49
2023/08/13 08:12:51;;;;;;;0.03;0.03;;;;;;;19.48;94.94;101562.03;5095729;28;20051;-45
2023/08/13 08:15:17;;;;;;;0.00;0.00;;;;;;;19.45;95.12;101556.81;5095161;28;20375;-45
2023/08/13 08:17:42;;;;;;;0.10;0.10;;;;;;;19.65;95.93;101567.34;5095427;28;20048;-45
2023/08/13 08:20:08;;;;;;;0.10;0.10;;;;;;;19.74;95.45;101563.88;5095569;28;20742;-51
2023/08/13 08:22:33;;;;;;;0.00;0.00;;;;;;;19.85;95.76;101562.19;5094528;28;20607;-50
2023/08/13 08:24:59;;;;;;;0.00;0.00;;;;;;;19.97;94.65;101557.88;5095349;28;20552;-50
2023/08/13 08:27:24;;;;;;;0.00;0.00;;;;;;;20.04;92.72;101562.25;5095012;28;20032;-50
2023/08/13 08:29:49;;;;;;;0.10;0.10;;;;;;;20.06;91.91;101565.72;5094906;28;20107;-50
2023/08/13 08:32:15;;;;;;;0.00;0.00;;;;;;;20.09;90.75;101555.28;5095438;28;20106;-49
2023/08/13 08:34:40;;;;;;;0.10;0.10;;;;;;;20.10;92.19;101550.91;5095047;28;20032;-50
2023/08/13 08:37:05;;;;;;;0.00;0.00;;;;;;;20.18;92.33;101555.28;5094643;28;20052;-50
2023/08/13 08:39:31;;;;;;;0.00;0.00;;;;;;;20.42;90.28;101557.91;5094971;28;20030;-49
2023/08/13 08:41:57;;;;;;;0.03;0.03;;;;;;;20.56;89.78;101561.41;5094937;28;20476;-49
2023/08/13 08:44:23;;;;;;;0.10;0.10;;;;;;;20.64;88.20;101559.63;5093870;28;20051;-47
2023/08/13 08:46:49;;;;;;;0.00;0.00;;;;;;;20.70;85.07;101559.66;5095294;28;20020;-50
2023/08/13 08:49:16;;;;;;;0.00;0.00;;;;;;;20.48;83.91;101552.69;5095162;28;20040;-50
2023/08/13 08:51:42;;;;;;;0.10;0.10;;;;;;;20.49;86.53;101546.56;5093899;28;20031;-50
2023/08/13 08:54:07;;;;;;;0.00;0.00;;;;;;;20.42;85.60;101555.28;5094886;28;20034;-50
2023/08/13 08:56:32;;;;;;;0.00;0.00;;;;;;;20.44;86.06;101557.03;5094472;28;20055;-51
2023/08/13 08:58:58;;;;;;;0.00;0.00;;;;;;;20.50;85.62;101550.91;5094251;28;20024;-50
2023/08/13 09:01:23;;;;;;;0.10;0.00;;;;;;;20.61;84.07;101554.41;5094625;28;20020;-50
2023/08/13 09:03:48;;;;;;;0.00;0.00;;;;;;;20.70;84.01;101548.34;5094727;28;20027;-49
2023/08/13 09:06:14;;;;;;;0.00;0.00;;;;;;;20.86;84.21;101544.81;5093923;28;20035;-50
2023/08/13 09:08:39;;;;;;;0.10;0.10;;;;;;;20.90;83.22;101545.66;5094412;28;20357;-49
2023/08/13 09:11:04;;;;;;;0.00;0.00;;;;;;;21.22;85.87;101539.47;5094457;28;20472;-45
2023/08/13 09:13:30;;;;;;;0.00;0.00;;;;;;;21.19;81.21;101529.00;5093452;28;20020;-46
2023/08/13 09:15:56;;;;;;;0.00;0.00;;;;;;;21.29;81.44;101532.44;5094582;28;20024;-49
2023/08/13 09:18:21;;;;;;;0.00;0.00;;;;;;;21.28;81.24;101528.06;5094462;28;20032;-45
2023/08/13 09:20:48;;;;;;;0.00;0.00;;;;;;;21.32;80.31;101527.19;5093393;28;20024;-50
2023/08/13 09:23:24;;;;;;;0.00;0.00;;;;;;;21.46;81.73;101541.13;5094261;28;20372;-49
2023/08/13 09:25:54;;;;;;;0.00;0.00;;;;;;;21.54;79.02;101526.22;5093743;28;20039;-50
2023/08/13 09:28:19;;;;;;;0.00;0.00;;;;;;;21.62;75.80;101523.56;5094163;28;20038;-49
2023/08/13 09:30:46;;;;;;;0.00;0.00;;;;;;;21.83;75.67;101524.31;5094117;28;20027;-46
2023/08/13 09:33:17;;;;;;;0.00;0.00;;;;;;;21.91;75.02;101522.53;5093039;28;20063;-49
2023/08/13 09:35:44;;;;;;;0.00;0.00;;;;;;;21.93;74.64;101525.16;5093850;28;20032;-50
2023/08/13 09:38:09;;;;;;;0.30;0.10;;;;;;;21.95;71.32;101524.25;5093860;28;20024;-49
2023/08/13 09:40:35;;;;;;;0.00;0.00;;;;;;;21.92;71.84;101515.53;5092858;28;20031;-49
2023/08/13 09:43:06;;;;;;;0.03;0.03;;;;;;;21.83;72.55;101508.56;5093707;28;20081;-50
2023/08/13 09:45:32;;;;;;;0.00;0.00;;;;;;;22.00;74.23;101517.22;5093582;28;20424;-50
2023/08/13 09:48:02;;;;;;;0.00;0.00;;;;;;;22.15;72.28;101504.84;5093158;28;20438;-46
2023/08/13 09:50:31;;;;;;;0.00;0.00;;;;;;;22.11;71.36;101505.75;5093806;28;20113;-51
2023/08/13 09:53:01;;;;;;;0.00;0.00;;;;;;;22.04;71.45;101503.19;5093815;28;20020;-51
2023/08/13 09:55:31;;;;;;;0.00;0.00;;;;;;;22.14;71.16;101504.00;5092937;28;20038;-51
2023/08/13 09:58:00;;;;;;;0.00;0.00;;;;;;;22.19;71.22;101499.56;5093769;28;20028;-50
2023/08/13 10:00:27;;;;;;;0.00;0.00;;;;;;;22.56;69.61;101495.75;5093390;28;20027;-52
2023/08/13 10:02:52;;;;;;;0.00;0.00;;;;;;;22.89;67.16;101492.78;5092816;28;20532;-51
2023/08/13 10:05:19;;;;;;;0.00;0.00;;;;;;;22.91;65.85;101491.00;5093326;28;20282;-47
2023/08/13 10:07:45;;;;;;;0.00;0.00;;;;;;;23.25;66.18;101490.63;5092530;28;20066;-50
2023/08/13 10:10:10;;;;;;;0.00;0.00;;;;;;;23.49;64.66;101489.44;5093604;28;20283;-48
2023/08/13 10:12:37;;;;;;;0.00;0.00;;;;;;;23.80;63.71;101487.19;5092157;28;20032;-48
2023/08/13 10:15:03;;;;;;;0.00;0.00;;;;;;;24.08;62.01;101499.09;5092369;28;20074;-51
2023/08/13 10:17:29;;;;;;;0.00;0.00;;;;;;;23.87;60.70;101490.59;5093087;28;20111;-51
2023/08/13 10:19:56;;;;;;;0.00;0.00;;;;;;;23.52;61.17;101494.63;5093278;28;20103;-47
2023/08/13 10:22:40;;;;;;;0.00;0.00;;;;;;;23.77;63.11;101494.28;5092733;28;20050;-51
2023/08/13 10:25:07;;;;;;;0.00;0.00;;;;;;;23.77;59.07;101484.63;5093293;28;20035;-49
2023/08/13 10:27:37;;;;;;;0.00;0.00;;;;;;;23.49;58.67;101489.44;5092849;28;20033;-51
2023/08/13 10:30:11;;;;;;;0.00;0.00;;;;;;;23.25;60.38;101490.63;5092490;28;20066;-49
2023/08/13 10:32:46;;;;;;;0.00;0.00;;;;;;;23.05;62.74;101498.72;5092710;28;20357;-51
2023/08/13 10:35:22;;;;;;;0.00;0.00;;;;;;;22.75;62.94;101487.66;5093258;28;20039;-51
2023/08/13 10:37:51;;;;;;;0.00;0.00;;;;;;;22.62;65.25;101485.19;5092349;28;20048;-51
2023/08/13 10:40:18;;;;;;;0.00;0.00;;;;;;;22.50;65.27;101486.19;5093156;28;20024;-50
2023/08/13 10:42:43;;;;;;;0.00;0.00;;;;;;;22.63;65.35;101481.69;5092737;28;20031;-51
2023/08/13 10:45:10;;;;;;;0.00;0.00;;;;;;;23.20;63.73;101482.78;5091944;28;20409;-50
2023/08/13 10:47:49;;;;;;;0.00;0.00;;;;;;;23.92;62.88;101486.16;5092899;28;20377;-49
2023/08/13 10:50:42;;;;;;;0.00;0.00;;;;;;;24.73;59.36;101483.03;5092396;28;20020;-47
2023/08/13 10:53:33;;;;;;;0.00;0.00;;;;;;;25.53;54.12;101480.50;5093078;28;20054;-47
2023/08/13 10:56:02;;;;;;;0.00;0.00;;;;;;;26.39;51.69;101487.22;5088879;28;20093;-50
2023/08/13 10:58:29;;;;;;;0.00;0.00;;;;;;;26.40;48.63;101481.03;5091757;28;20065;-50
2023/08/13 11:01:16;;;;;;;0.00;0.00;;;;;;;26.48;48.83;101478.19;5092846;28;20024;-51
2023/08/13 11:03:45;;;;;;;0.00;0.00;;;;;;;26.17;49.04;101479.91;5092429;28;20501;-48
2023/08/13 11:06:11;;;;;;;0.00;0.00;;;;;;;25.80;49.35;101478.13;5092042;28;20345;-51
2023/08/13 11:08:38;;;;;;;0.00;0.00;;;;;;;25.37;51.05;101473.84;5092410;28;20062;-49
2023/08/13 11:11:05;;;;;;;;;;;;;;;25.78;52.54;101474.66;5092522;28;20052;-49
2023/08/13 11:13:31;;;;;;;0.00;0.00;;;;;;;24.75;54.73;101467.19;5092834;28;20332;-51
2023/08/13 11:15:56;;;;;;;0.00;0.00;;;;;;;24.37;57.11;101463.50;5092737;28;20107;-49